Time;durP1;ratioP1;P1;durP2;ratioP2;P2;SDS_P1;SDS_P2;PMS_P1;PMS_P2;Temp;Humidity;BMP_temperature;BMP_pressure;BME280_temperature;BME280_humidity;BME280_pressure;Samples;Min_cycle;Max_cycle;Signal;HPM_P1;HPM_P2
2021/08/16 00:01:16;;;;;;;6.17;2.80;;;;;;;;;;5014553;28;20022;-76
2021/08/16 00:03:41;;;;;;;4.87;2.70;;;;;;;;;;5015273;28;20259;-76
2021/08/16 00:06:06;;;;;;;5.70;2.50;;;;;;;;;;5015165;28;20339;-76
2021/08/16 00:08:31;;;;;;;3.45;2.20;;;;;;;;;;5015134;28;20341;-77
2021/08/16 00:11:03;;;;;;;3.95;2.10;;;;;;;;;;5014081;28;20022;-76
2021/08/16 00:13:28;;;;;;;2.17;1.70;;;;;;;;;;5014116;28;20026;-76
2021/08/16 00:15:53;;;;;;;3.20;2.03;;;;;;;;;;5014980;28;20014;-76
2021/08/16 00:18:18;;;;;;;4.13;2.13;;;;;;;;;;5014576;28;20037;-76
2021/08/16 00:20:47;;;;;;;3.72;1.90;;;;;;;;;;5014940;28;20058;-75
2021/08/16 00:23:14;;;;;;;5.03;2.00;;;;;;;;;;5014168;28;20352;-76
2021/08/16 00:25:40;;;;;;;2.10;1.80;;;;;;;;;;5014491;28;20018;-75
2021/08/16 00:28:05;;;;;;;4.85;2.30;;;;;;;;;;5014703;28;20045;-76
2021/08/16 00:30:31;;;;;;;3.30;1.90;;;;;;;;;;5009297;28;20034;-76
2021/08/16 00:32:56;;;;;;;3.87;2.27;;;;;;;;;;4994909;28;20062;-77
2021/08/16 00:35:21;;;;;;;3.10;2.10;;;;;;;;;;4994743;28;20328;-77
2021/08/16 00:37:47;;;;;;;3.45;2.00;;;;;;;;;;4995230;28;20356;-76
2021/08/16 00:40:13;;;;;;;3.80;2.13;;;;;;;;;;5008678;28;20025;-76
2021/08/16 00:42:38;;;;;;;4.20;1.90;;;;;;;;;;5014159;28;20056;-76
2021/08/16 00:45:07;;;;;;;7.15;1.77;;;;;;;;;;4998494;28;20026;-77
2021/08/16 00:47:33;;;;;;;2.90;2.00;;;;;;;;;;4994820;28;20404;-77
2021/08/16 00:49:58;;;;;;;2.22;1.70;;;;;;;;;;5007560;28;20115;-77
2021/08/16 00:52:28;;;;;;;2.95;1.80;;;;;;;;;;5013662;28;20076;-76
2021/08/16 00:54:54;;;;;;;2.70;1.70;;;;;;;;;;5013975;28;20030;-76
2021/08/16 00:57:22;;;;;;;2.55;1.50;;;;;;;;;;5014078;28;20022;-76
2021/08/16 00:59:48;;;;;;;5.88;1.73;;;;;;;;;;5014385;28;20045;-76
2021/08/16 01:02:13;;;;;;;3.30;1.95;;;;;;;;;;5022854;28;20499;-76
2021/08/16 01:04:38;;;;;;;2.27;1.43;;;;;;;;;;5013985;28;20360;-76
2021/08/16 01:07:04;;;;;;;2.53;1.38;;;;;;;;;;5013662;28;20650;-77
2021/08/16 01:09:29;;;;;;;4.22;1.60;;;;;;;;;;5014089;28;20064;-76
2021/08/16 01:11:54;;;;;;;2.70;1.50;;;;;;;;;;5013057;28;20030;-77
2021/08/16 01:14:25;;;;;;;3.87;1.70;;;;;;;;;;5010458;28;20081;-76
2021/08/16 01:16:50;;;;;;;2.55;1.40;;;;;;;;;;5014052;28;20252;-76
2021/08/16 01:19:21;;;;;;;4.43;1.73;;;;;;;;;;5013669;28;20076;-76
2021/08/16 01:21:49;;;;;;;5.57;1.58;;;;;;;;;;5015030;28;20018;-76
2021/08/16 01:24:14;;;;;;;5.30;1.45;;;;;;;;;;5033382;28;20017;-76
2021/08/16 01:26:40;;;;;;;4.65;1.65;;;;;;;;;;5033670;28;20462;-76
2021/08/16 01:29:14;;;;;;;6.37;1.53;;;;;;;;;;5026772;28;20018;-76
2021/08/16 01:31:39;;;;;;;3.88;1.33;;;;;;;;;;5012118;28;20276;-77
2021/08/16 01:34:04;;;;;;;3.40;1.40;;;;;;;;;;5013264;28;20041;-77
2021/08/16 01:36:32;;;;;;;3.30;1.63;;;;;;;;;;5013869;28;20049;-77
2021/08/16 01:38:57;;;;;;;4.00;1.20;;;;;;;;;;5014006;28;20261;-77
2021/08/16 01:41:25;;;;;;;3.87;1.40;;;;;;;;;;5011868;28;20536;-77
2021/08/16 01:43:50;;;;;;;6.10;1.50;;;;;;;;;;5013853;28;20263;-77
2021/08/16 01:46:15;;;;;;;4.17;1.20;;;;;;;;;;5013829;28;20347;-77
2021/08/16 01:48:40;;;;;;;7.37;1.60;;;;;;;;;;5023150;28;20822;-76
2021/08/16 01:51:08;;;;;;;4.35;1.23;;;;;;;;;;5007630;28;20279;-77
2021/08/16 01:53:33;;;;;;;2.90;1.17;;;;;;;;;;5007869;28;20036;-76
2021/08/16 01:55:58;;;;;;;3.00;1.20;;;;;;;;;;4998161;28;20417;-76
2021/08/16 01:58:24;;;;;;;3.83;1.20;;;;;;;;;;4993398;28;20026;-77
2021/08/16 02:00:49;;;;;;;3.65;1.15;;;;;;;;;;4993895;28;20704;-77
2021/08/16 02:03:16;;;;;;;2.50;1.10;;;;;;;;;;4993662;28;20338;-77
2021/08/16 02:05:42;;;;;;;3.08;0.90;;;;;;;;;;4993834;28;20520;-76
2021/08/16 02:08:07;;;;;;;1.98;1.15;;;;;;;;;;5000155;28;20026;-76
2021/08/16 02:10:32;;;;;;;3.67;1.42;;;;;;;;;;5013356;28;20030;-76
2021/08/16 02:12:58;;;;;;;3.40;1.20;;;;;;;;;;5012515;28;20021;-76
2021/08/16 02:15:23;;;;;;;2.20;1.10;;;;;;;;;;5012809;28;20034;-76
2021/08/16 02:17:48;;;;;;;3.53;1.10;;;;;;;;;;5012566;28;20257;-76
2021/08/16 02:20:13;;;;;;;2.60;1.05;;;;;;;;;;5012777;28;20034;-76
2021/08/16 02:22:39;;;;;;;3.08;1.30;;;;;;;;;;5026643;28;20029;-76
2021/08/16 02:25:04;;;;;;;1.17;0.80;;;;;;;;;;5032976;28;20448;-76
2021/08/16 02:27:29;;;;;;;4.05;1.58;;;;;;;;;;5011895;28;20769;-76
2021/08/16 02:29:57;;;;;;;3.88;1.50;;;;;;;;;;5013207;28;20053;-76
2021/08/16 02:32:24;;;;;;;2.17;1.30;;;;;;;;;;5013276;28;20026;-76
2021/08/16 02:34:52;;;;;;;6.35;1.52;;;;;;;;;;5007932;28;20401;-76
2021/08/16 02:37:17;;;;;;;3.13;1.30;;;;;;;;;;4994997;28;20357;-76
2021/08/16 02:39:43;;;;;;;2.17;1.10;;;;;;;;;;4996656;28;20030;-76
2021/08/16 02:42:09;;;;;;;3.58;1.50;;;;;;;;;;4997165;28;20285;-76
2021/08/16 02:44:34;;;;;;;6.70;1.40;;;;;;;;;;5007229;28;20087;-76
2021/08/16 02:47:01;;;;;;;3.30;1.23;;;;;;;;;;5016290;28;20479;-77
2021/08/16 02:49:27;;;;;;;4.05;1.67;;;;;;;;;;5016401;28;20728;-77
2021/08/16 02:51:52;;;;;;;4.65;1.20;;;;;;;;;;5015496;28;20056;-77
2021/08/16 02:54:17;;;;;;;2.50;1.10;;;;;;;;;;5016439;28;20025;-77
2021/08/16 02:56:43;;;;;;;3.70;1.20;;;;;;;;;;5016488;28;20260;-77
2021/08/16 02:59:12;;;;;;;2.50;1.30;;;;;;;;;;5015869;28;20036;-77
2021/08/16 03:01:40;;;;;;;4.00;1.40;;;;;;;;;;5015803;28;20022;-77
2021/08/16 03:04:05;;;;;;;3.33;1.50;;;;;;;;;;5016412;28;20022;-77
2021/08/16 03:06:33;;;;;;;3.55;1.50;;;;;;;;;;5016321;28;20049;-77
2021/08/16 03:08:58;;;;;;;3.50;1.15;;;;;;;;;;5021664;28;20021;-77
2021/08/16 03:11:24;;;;;;;3.35;1.30;;;;;;;;;;5035820;28;20023;-77
2021/08/16 03:13:49;;;;;;;4.65;1.75;;;;;;;;;;5030929;28;20452;-77
2021/08/16 03:16:16;;;;;;;5.30;1.30;;;;;;;;;;5015688;28;20036;-77
2021/08/16 03:18:42;;;;;;;4.60;1.50;;;;;;;;;;5015881;28;20456;-76
2021/08/16 03:21:07;;;;;;;2.00;1.23;;;;;;;;;;5015101;28;20036;-76
2021/08/16 03:23:33;;;;;;;2.45;1.40;;;;;;;;;;5015786;28;20292;-76
2021/08/16 03:25:58;;;;;;;3.13;1.40;;;;;;;;;;5015137;28;20092;-76
2021/08/16 03:28:23;;;;;;;3.92;1.42;;;;;;;;;;5015651;28;20280;-76
2021/08/16 03:30:48;;;;;;;3.55;1.42;;;;;;;;;;5014782;28;20567;-76
2021/08/16 03:33:14;;;;;;;2.43;1.30;;;;;;;;;;5016190;28;20360;-76
2021/08/16 03:35:42;;;;;;;2.38;1.15;;;;;;;;;;5015816;28;20723;-76
2021/08/16 03:38:10;;;;;;;4.60;1.27;;;;;;;;;;5017308;28;20021;-76
2021/08/16 03:40:35;;;;;;;5.55;1.20;;;;;;;;;;5035277;28;20360;-75
2021/08/16 03:43:05;;;;;;;2.45;1.15;;;;;;;;;;5035759;28;20032;-76
2021/08/16 03:45:32;;;;;;;3.22;1.30;;;;;;;;;;5035496;28;20032;-77
2021/08/16 03:47:57;;;;;;;2.97;1.50;;;;;;;;;;5025118;28;20073;-76
2021/08/16 03:50:28;;;;;;;2.67;1.30;;;;;;;;;;5015399;28;20112;-77
2021/08/16 03:52:55;;;;;;;3.33;1.40;;;;;;;;;;5022941;28;20087;-77
2021/08/16 03:55:20;;;;;;;4.25;1.40;;;;;;;;;;5034909;28;20028;-76
2021/08/16 03:57:48;;;;;;;5.00;1.30;;;;;;;;;;5027847;28;20021;-77
2021/08/16 04:00:14;;;;;;;2.70;1.20;;;;;;;;;;5014012;28;20029;-78
2021/08/16 04:02:41;;;;;;;2.28;1.25;;;;;;;;;;5014293;28;20100;-77
2021/08/16 04:05:09;;;;;;;3.13;1.17;;;;;;;;;;5015045;28;20109;-77
2021/08/16 04:07:36;;;;;;;3.83;1.55;;;;;;;;;;5015156;28;20026;-77
2021/08/16 04:10:04;;;;;;;4.03;1.35;;;;;;;;;;5015291;28;20018;-76
2021/08/16 04:12:29;;;;;;;3.88;1.30;;;;;;;;;;5013715;28;20471;-77
2021/08/16 04:14:57;;;;;;;3.37;1.30;;;;;;;;;;5014883;28;20032;-77
2021/08/16 04:17:22;;;;;;;2.60;1.30;;;;;;;;;;5014217;28;20285;-77
2021/08/16 04:19:49;;;;;;;3.55;1.25;;;;;;;;;;5014740;28;20091;-76
2021/08/16 04:22:15;;;;;;;2.90;1.00;;;;;;;;;;5009416;28;20018;-77
2021/08/16 04:24:40;;;;;;;3.30;1.40;;;;;;;;;;4995048;28;20057;-76
2021/08/16 04:27:07;;;;;;;2.77;1.10;;;;;;;;;;4993302;28;20125;-76
2021/08/16 04:29:33;;;;;;;3.88;1.27;;;;;;;;;;4994418;28;20297;-77
2021/08/16 04:31:58;;;;;;;3.45;1.33;;;;;;;;;;5005460;28;20480;-77
2021/08/16 04:34:23;;;;;;;3.28;1.20;;;;;;;;;;4998018;28;20033;-77
2021/08/16 04:36:48;;;;;;;3.00;1.27;;;;;;;;;;5013548;28;20095;-77
2021/08/16 04:39:14;;;;;;;3.10;1.23;;;;;;;;;;5013607;28;20033;-77
2021/08/16 04:41:39;;;;;;;2.60;1.00;;;;;;;;;;5030773;28;20670;-77
2021/08/16 04:44:04;;;;;;;2.73;0.90;;;;;;;;;;5034332;28;20018;-77
2021/08/16 04:46:29;;;;;;;3.90;1.20;;;;;;;;;;5033320;28;20252;-77
2021/08/16 04:48:54;;;;;;;2.05;1.05;;;;;;;;;;5026174;28;20034;-78
2021/08/16 04:51:22;;;;;;;2.83;1.07;;;;;;;;;;4994741;28;20030;-77
2021/08/16 04:53:52;;;;;;;3.20;1.10;;;;;;;;;;4994692;28;20631;-77
2021/08/16 04:56:19;;;;;;;1.73;0.85;;;;;;;;;;5003418;28;20133;-77
2021/08/16 04:58:45;;;;;;;3.97;1.08;;;;;;;;;;5014240;28;20429;-77
2021/08/16 05:01:10;;;;;;;3.25;0.80;;;;;;;;;;5012534;28;20022;-77
2021/08/16 05:03:35;;;;;;;3.93;1.30;;;;;;;;;;5014245;28;20379;-79
2021/08/16 05:06:06;;;;;;;3.83;1.10;;;;;;;;;;5013514;28;20730;-78
2021/08/16 05:08:32;;;;;;;3.17;0.80;;;;;;;;;;5014106;28;20257;-78
2021/08/16 05:10:57;;;;;;;6.05;1.40;;;;;;;;;;5014100;28;20021;-76
2021/08/16 05:13:28;;;;;;;3.07;1.27;;;;;;;;;;5013595;28;20555;-76
2021/08/16 05:15:53;;;;;;;2.90;1.02;;;;;;;;;;5013692;28;20276;-76
2021/08/16 05:18:20;;;;;;;5.07;1.20;;;;;;;;;;5013140;28;20029;-76
2021/08/16 05:20:46;;;;;;;1.42;1.02;;;;;;;;;;5012888;28;20741;-76
2021/08/16 05:23:11;;;;;;;3.10;1.35;;;;;;;;;;5013876;28;20022;-76
2021/08/16 05:25:36;;;;;;;1.13;0.82;;;;;;;;;;5031463;28;20333;-76
2021/08/16 05:28:01;;;;;;;1.63;1.00;;;;;;;;;;5033631;28;20032;-75
2021/08/16 05:30:27;;;;;;;2.17;1.02;;;;;;;;;;5021066;28;20287;-77
2021/08/16 05:32:52;;;;;;;2.35;0.90;;;;;;;;;;5033406;28;20022;-76
2021/08/16 05:35:17;;;;;;;3.65;1.20;;;;;;;;;;5033504;28;20079;-76
2021/08/16 05:37:43;;;;;;;2.85;1.23;;;;;;;;;;5005152;28;20409;-76
2021/08/16 05:40:09;;;;;;;2.55;1.10;;;;;;;;;;5013354;28;20022;-76
2021/08/16 05:42:34;;;;;;;3.33;1.20;;;;;;;;;;5012383;28;20065;-75
2021/08/16 05:45:00;;;;;;;2.72;1.15;;;;;;;;;;5012995;28;20060;-75
2021/08/16 05:47:26;;;;;;;4.75;1.30;;;;;;;;;;5011112;28;20026;-75
2021/08/16 05:49:51;;;;;;;2.08;1.00;;;;;;;;;;5012474;28;20092;-76
2021/08/16 05:52:16;;;;;;;3.15;1.20;;;;;;;;;;5012236;28;20026;-76
2021/08/16 05:54:42;;;;;;;4.13;1.20;;;;;;;;;;5013361;28;20096;-76
2021/08/16 05:57:10;;;;;;;3.97;1.30;;;;;;;;;;5013346;28;20080;-75
2021/08/16 05:59:35;;;;;;;2.53;1.30;;;;;;;;;;5014095;28;20079;-90
2021/08/16 06:02:01;;;;;;;3.35;1.30;;;;;;;;;;5013219;28;20097;-90
2021/08/16 06:04:26;;;;;;;3.90;1.50;;;;;;;;;;5012780;28;20024;-87
2021/08/16 06:06:51;;;;;;;4.87;1.33;;;;;;;;;;5013448;28;20253;-88
2021/08/16 06:09:19;;;;;;;4.50;1.37;;;;;;;;;;5003043;28;20285;-87
2021/08/16 06:11:44;;;;;;;5.65;1.50;;;;;;;;;;4994345;28;20272;-81
2021/08/16 06:14:09;;;;;;;3.05;1.30;;;;;;;;;;5015664;28;20018;-81
2021/08/16 06:16:36;;;;;;;4.72;1.40;;;;;;;;;;5017103;28;20082;-81
2021/08/16 06:19:02;;;;;;;3.83;1.30;;;;;;;;;;5017185;28;20022;-81
2021/08/16 06:21:27;;;;;;;4.65;1.50;;;;;;;;;;5009575;28;20072;-80
2021/08/16 06:23:52;;;;;;;3.05;1.33;;;;;;;;;;5016674;28;20022;-80
2021/08/16 06:26:20;;;;;;;3.20;1.20;;;;;;;;;;5014449;28;20022;-80
2021/08/16 06:28:45;;;;;;;2.85;1.30;;;;;;;;;;5017048;28;20041;-81
2021/08/16 06:31:10;;;;;;;3.00;1.00;;;;;;;;;;5014746;28;20022;-82
2021/08/16 06:33:37;;;;;;;3.22;1.27;;;;;;;;;;5016670;28;20018;-81
2021/08/16 06:36:03;;;;;;;3.85;1.27;;;;;;;;;;5016442;28;20053;-80
2021/08/16 06:38:29;;;;;;;4.00;1.13;;;;;;;;;;5015515;28;20035;-79
2021/08/16 06:40:55;;;;;;;2.97;1.13;;;;;;;;;;5016611;28;20034;-80
2021/08/16 06:43:23;;;;;;;2.60;1.10;;;;;;;;;;5015972;28;20032;-80
2021/08/16 06:45:48;;;;;;;3.33;1.42;;;;;;;;;;5016100;28;20025;-78
2021/08/16 06:48:14;;;;;;;2.83;1.27;;;;;;;;;;5016247;28;20437;-84
2021/08/16 06:50:40;;;;;;;2.53;1.00;;;;;;;;;;5016341;28;20022;-80
2021/08/16 06:53:08;;;;;;;1.52;0.90;;;;;;;;;;5015841;28;20041;-80
2021/08/16 06:55:34;;;;;;;3.65;0.85;;;;;;;;;;5016496;28;20076;-80
2021/08/16 06:58:02;;;;;;;2.83;1.10;;;;;;;;;;5015586;28;20026;-80
2021/08/16 07:00:27;;;;;;;3.60;1.10;;;;;;;;;;5016282;28;20029;-80
2021/08/16 07:02:52;;;;;;;3.93;1.20;;;;;;;;;;5015582;28;20084;-80
2021/08/16 07:05:18;;;;;;;2.40;1.10;;;;;;;;;;5016129;28;20269;-82
2021/08/16 07:07:43;;;;;;;2.75;1.10;;;;;;;;;;5013919;28;20284;-80
2021/08/16 07:10:09;;;;;;;4.53;1.13;;;;;;;;;;5015663;28;20080;-83
2021/08/16 07:15:43;;;;;;;2.55;0.98;;;;;;;;;;4996698;28;20057;-86
2021/08/16 07:18:27;;;;;;;2.15;0.90;;;;;;;;;;5006527;28;20488;-85
2021/08/16 07:32:08;;;;;;;4.32;1.15;;;;;;;;;;5012844;28;20458;-82
2021/08/16 07:40:56;;;;;;;1.70;0.95;;;;;;;;;;5010768;28;20096;-84
2021/08/16 07:43:21;;;;;;;2.85;0.98;;;;;;;;;;4995209;28;20087;-84
2021/08/16 08:13:27;;;;;;;2.33;1.40;;;;;;;;;;4933738;28;20035;-77
2021/08/16 08:15:53;;;;;;;7.72;1.40;;;;;;;;;;5014558;28;20025;-81
2021/08/16 08:18:18;;;;;;;2.53;1.38;;;;;;;;;;5014928;28;20018;-82
2021/08/16 08:20:43;;;;;;;5.03;1.70;;;;;;;;;;5014703;28;20104;-80
2021/08/16 08:23:27;;;;;;;3.45;1.60;;;;;;;;;;5014095;28;20018;-83
2021/08/16 08:25:52;;;;;;;7.05;1.60;;;;;;;;;;5015259;28;20033;-83
2021/08/16 08:28:18;;;;;;;5.13;1.60;;;;;;;;;;5014495;28;20053;-83
2021/08/16 08:30:44;;;;;;;3.92;1.58;;;;;;;;;;5014678;28;20029;-84
2021/08/16 08:33:11;;;;;;;4.68;1.50;;;;;;;;;;5014564;28;20107;-83
2021/08/16 08:35:38;;;;;;;3.30;1.50;;;;;;;;;;5013775;28;20444;-84
2021/08/16 08:38:03;;;;;;;5.43;1.80;;;;;;;;;;5014474;28;20440;-84
2021/08/16 08:40:33;;;;;;;5.22;1.63;;;;;;;;;;5014543;28;20044;-82
2021/08/16 08:43:00;;;;;;;6.03;1.60;;;;;;;;;;4997150;28;20026;-84
2021/08/16 08:45:27;;;;;;;5.25;1.75;;;;;;;;;;4997269;28;20037;-85
2021/08/16 08:47:53;;;;;;;5.10;1.80;;;;;;;;;;4997323;28;20026;-84
2021/08/16 08:50:19;;;;;;;4.13;1.45;;;;;;;;;;4997084;28;20036;-85
2021/08/16 08:52:44;;;;;;;4.20;1.63;;;;;;;;;;4997200;28;20041;-85
2021/08/16 08:55:13;;;;;;;6.50;1.80;;;;;;;;;;4996950;28;20026;-85
2021/08/16 08:57:39;;;;;;;5.20;1.70;;;;;;;;;;4991437;28;20014;-85
2021/08/16 09:00:06;;;;;;;4.50;1.40;;;;;;;;;;4996984;28;20113;-84
2021/08/16 09:02:31;;;;;;;3.20;1.67;;;;;;;;;;4996795;28;20449;-86
2021/08/16 09:04:59;;;;;;;4.65;2.17;;;;;;;;;;4997171;28;20044;-86
2021/08/16 09:07:37;;;;;;;5.32;1.50;;;;;;;;;;4996918;28;20021;-86
2021/08/16 09:10:12;;;;;;;3.97;1.50;;;;;;;;;;5011744;28;20017;-86
2021/08/16 09:12:38;;;;;;;3.83;1.50;;;;;;;;;;4993159;28;20099;-85
2021/08/16 09:15:12;;;;;;;5.32;1.88;;;;;;;;;;4996758;28;20448;-85
2021/08/16 09:17:37;;;;;;;5.63;1.75;;;;;;;;;;4996560;28;20160;-85
2021/08/16 09:20:15;;;;;;;7.88;1.90;;;;;;;;;;5014152;28;20104;-85
2021/08/16 09:22:43;;;;;;;6.20;1.45;;;;;;;;;;4996471;28;20347;-85
2021/08/16 09:25:10;;;;;;;6.90;2.03;;;;;;;;;;4996602;28;20076;-85
2021/08/16 09:27:46;;;;;;;4.07;1.65;;;;;;;;;;5013402;28;20121;-84
2021/08/16 09:30:12;;;;;;;4.47;1.70;;;;;;;;;;4996982;28;20026;-85
2021/08/16 09:32:37;;;;;;;5.25;1.75;;;;;;;;;;5013644;28;20049;-85
2021/08/16 09:35:08;;;;;;;3.30;1.37;;;;;;;;;;5014090;28;20033;-85
2021/08/16 09:37:34;;;;;;;4.13;1.73;;;;;;;;;;4997025;28;20662;-85
2021/08/16 09:40:09;;;;;;;5.65;1.58;;;;;;;;;;5013559;28;20022;-84
2021/08/16 09:42:40;;;;;;;3.80;1.43;;;;;;;;;;5033613;28;20022;-85
2021/08/16 09:45:05;;;;;;;9.75;1.70;;;;;;;;;;5033864;28;20029;-85
2021/08/16 09:47:37;;;;;;;4.32;1.60;;;;;;;;;;5018997;28;20026;-85
2021/08/16 09:50:03;;;;;;;6.35;1.45;;;;;;;;;;5018212;28;20025;-85
2021/08/16 09:52:32;;;;;;;3.63;1.55;;;;;;;;;;5017584;28;20018;-85
2021/08/16 09:54:59;;;;;;;2.58;1.40;;;;;;;;;;5000370;28;20490;-85
2021/08/16 09:57:24;;;;;;;7.13;1.50;;;;;;;;;;5017746;28;20440;-84
2021/08/16 09:59:52;;;;;;;3.30;1.17;;;;;;;;;;5016939;28;20076;-85
2021/08/16 10:02:17;;;;;;;6.95;1.92;;;;;;;;;;5016753;28;20026;-85
2021/08/16 10:04:42;;;;;;;6.68;1.85;;;;;;;;;;5017654;28;20114;-85
2021/08/16 10:07:10;;;;;;;5.03;1.30;;;;;;;;;;4999606;28;20080;-83
2021/08/16 10:09:36;;;;;;;4.93;1.50;;;;;;;;;;5015372;28;20273;-87
2021/08/16 10:12:05;;;;;;;5.28;1.55;;;;;;;;;;5011652;28;20103;-85
2021/08/16 10:14:32;;;;;;;4.10;1.25;;;;;;;;;;5016979;28;20108;-86
2021/08/16 10:16:59;;;;;;;3.53;1.50;;;;;;;;;;5017174;28;20052;-84
2021/08/16 10:19:29;;;;;;;2.17;1.13;;;;;;;;;;4999707;28;20028;-84
2021/08/16 10:22:01;;;;;;;4.93;1.70;;;;;;;;;;4999229;28;20037;-83
2021/08/16 10:24:30;;;;;;;5.22;1.60;;;;;;;;;;5016303;28;20038;-83
2021/08/16 10:26:59;;;;;;;4.60;1.30;;;;;;;;;;5017618;28;20021;-84
2021/08/16 10:29:25;;;;;;;5.18;1.70;;;;;;;;;;5016496;28;20050;-84
2021/08/16 10:31:52;;;;;;;3.85;1.45;;;;;;;;;;5017059;28;20075;-83
2021/08/16 10:34:27;;;;;;;6.93;1.40;;;;;;;;;;5013696;28;20468;-81
2021/08/16 10:36:56;;;;;;;2.78;1.45;;;;;;;;;;5017013;28;20025;-80
2021/08/16 10:39:31;;;;;;;3.45;1.50;;;;;;;;;;5016995;28;20026;-81
2021/08/16 10:42:03;;;;;;;4.20;1.50;;;;;;;;;;5017009;28;20018;-79
2021/08/16 10:44:36;;;;;;;3.50;1.60;;;;;;;;;;5018708;28;20018;-79
2021/08/16 10:47:01;;;;;;;3.45;1.30;;;;;;;;;;5012084;28;20026;-79
2021/08/16 10:49:31;;;;;;;5.78;1.50;;;;;;;;;;5011392;28;20022;-80
2021/08/16 10:51:57;;;;;;;3.92;1.15;;;;;;;;;;4999152;28;20046;-82
2021/08/16 10:54:23;;;;;;;3.43;1.50;;;;;;;;;;5016859;28;20458;-85
2021/08/16 10:56:55;;;;;;;3.17;1.50;;;;;;;;;;5005397;28;20136;-84
2021/08/16 10:59:21;;;;;;;4.38;1.40;;;;;;;;;;4998847;28;20371;-83
2021/08/16 11:01:47;;;;;;;2.33;1.30;;;;;;;;;;4999472;28;20108;-83
2021/08/16 11:04:16;;;;;;;3.05;1.50;;;;;;;;;;4999346;28;20057;-83
2021/08/16 11:06:59;;;;;;;3.45;1.40;;;;;;;;;;5015859;28;20108;-86
2021/08/16 11:09:28;;;;;;;2.83;1.33;;;;;;;;;;5016538;28;20026;-86
2021/08/16 11:12:07;;;;;;;3.58;1.23;;;;;;;;;;5003173;28;20444;-85
2021/08/16 11:14:41;;;;;;;3.65;1.50;;;;;;;;;;4999376;28;20371;-91
2021/08/16 11:17:09;;;;;;;5.63;1.50;;;;;;;;;;5016371;28;20073;-90
2021/08/16 11:20:00;;;;;;;6.10;1.55;;;;;;;;;;4998932;28;20100;-89
2021/08/16 11:22:37;;;;;;;;;;;;;;;;;;;;;
2021/08/16 11:25:05;;;;;;;2.17;1.55;;;;;;;;;;5013521;28;20022;-82
2021/08/16 11:27:34;;;;;;;4.82;1.50;;;;;;;;;;4998738;28;20108;-89
2021/08/16 11:29:59;;;;;;;6.53;1.95;;;;;;;;;;4998784;28;20384;-79
2021/08/16 11:32:25;;;;;;;3.13;2.05;;;;;;;;;;5015681;28;20109;-82
2021/08/16 11:34:54;;;;;;;2.90;1.55;;;;;;;;;;4999969;28;20034;-78
2021/08/16 11:37:19;;;;;;;2.47;1.70;;;;;;;;;;4998305;28;20018;-80
2021/08/16 11:39:49;;;;;;;4.50;1.67;;;;;;;;;;4998847;28;20021;-79
2021/08/16 11:42:14;;;;;;;3.72;1.55;;;;;;;;;;4998368;28;20056;-82
2021/08/16 11:44:40;;;;;;;3.00;1.50;;;;;;;;;;4997497;28;20057;-81
2021/08/16 11:47:05;;;;;;;3.95;1.63;;;;;;;;;;5001244;28;20026;-82
2021/08/16 11:49:33;;;;;;;3.25;1.50;;;;;;;;;;4998065;28;20124;-82
2021/08/16 11:52:01;;;;;;;2.30;1.55;;;;;;;;;;4998541;28;20337;-81
2021/08/16 11:54:31;;;;;;;9.68;1.80;;;;;;;;;;5015018;28;20029;-81
2021/08/16 11:56:59;;;;;;;2.53;1.30;;;;;;;;;;5014969;28;20108;-81
2021/08/16 11:59:25;;;;;;;4.28;1.40;;;;;;;;;;4995323;28;20029;-81
2021/08/16 12:01:51;;;;;;;2.60;1.55;;;;;;;;;;4995841;28;20080;-80
2021/08/16 12:04:17;;;;;;;7.82;1.60;;;;;;;;;;5006049;28;20029;-79
2021/08/16 12:06:46;;;;;;;2.17;1.20;;;;;;;;;;5000123;28;20084;-78
2021/08/16 12:09:13;;;;;;;2.85;1.20;;;;;;;;;;4997657;28;20029;-79
2021/08/16 12:11:42;;;;;;;6.25;1.20;;;;;;;;;;4997364;28;20357;-78
2021/08/16 12:14:09;;;;;;;3.88;1.25;;;;;;;;;;4999894;28;20050;-78
2021/08/16 12:16:39;;;;;;;3.72;1.55;;;;;;;;;;5009853;28;20034;-81
2021/08/16 12:19:07;;;;;;;2.45;1.30;;;;;;;;;;5009400;28;20026;-81
2021/08/16 12:21:32;;;;;;;1.95;1.23;;;;;;;;;;5014770;28;20404;-80
2021/08/16 12:23:59;;;;;;;1.73;1.20;;;;;;;;;;4996978;28;20033;-80
2021/08/16 12:26:52;;;;;;;2.03;1.00;;;;;;;;;;5014394;28;20068;-80
2021/08/16 12:29:24;;;;;;;2.47;0.80;;;;;;;;;;5008763;28;20042;-80
2021/08/16 12:31:52;;;;;;;1.10;0.90;;;;;;;;;;5014867;28;20059;-80
2021/08/16 12:46:47;;;;;;;4.22;3.20;;;;;;;;;;5006915;28;20156;-79
2021/08/16 12:49:22;;;;;;;5.18;3.78;;;;;;;;;;5013264;28;20018;-82
2021/08/16 12:51:48;;;;;;;8.50;4.10;;;;;;;;;;4997268;28;20040;-80
2021/08/16 12:54:13;;;;;;;4.93;4.05;;;;;;;;;;4997226;28;20398;-78
2021/08/16 12:56:38;;;;;;;6.10;3.80;;;;;;;;;;4997330;28;20429;-78
2021/08/16 12:59:03;;;;;;;6.15;4.20;;;;;;;;;;4997324;28;20026;-78
2021/08/16 13:01:31;;;;;;;6.25;4.22;;;;;;;;;;4997078;28;20021;-78
2021/08/16 13:03:56;;;;;;;7.90;5.13;;;;;;;;;;4997161;28;20029;-84
2021/08/16 13:06:22;;;;;;;7.90;5.68;;;;;;;;;;4996833;28;20030;-79
2021/08/16 13:08:48;;;;;;;11.32;6.88;;;;;;;;;;4996801;28;20389;-81
2021/08/16 13:11:13;;;;;;;10.65;6.93;;;;;;;;;;5013706;28;20064;-77
2021/08/16 13:13:42;;;;;;;10.20;7.57;;;;;;;;;;5013510;28;20022;-81
2021/08/16 13:16:08;;;;;;;13.45;8.40;;;;;;;;;;4996405;28;20037;-83
2021/08/16 13:18:33;;;;;;;13.18;9.07;;;;;;;;;;4996378;28;20018;-77
2021/08/16 13:21:01;;;;;;;13.15;9.05;;;;;;;;;;4996203;28;20028;-80
2021/08/16 13:23:29;;;;;;;15.70;9.15;;;;;;;;;;4996595;28;20017;-79
2021/08/16 13:25:57;;;;;;;12.68;9.68;;;;;;;;;;4997109;28;20030;-79
2021/08/16 13:28:22;;;;;;;12.27;9.52;;;;;;;;;;4991509;28;20057;-78
2021/08/16 13:30:48;;;;;;;12.20;9.15;;;;;;;;;;5013627;28;20368;-77
2021/08/16 13:33:13;;;;;;;14.48;10.70;;;;;;;;;;4996513;28;20022;-77
2021/08/16 13:35:41;;;;;;;13.18;9.57;;;;;;;;;;4996675;28;20017;-77
2021/08/16 13:38:06;;;;;;;12.93;9.90;;;;;;;;;;4996776;28;20141;-78
2021/08/16 13:40:32;;;;;;;15.45;9.98;;;;;;;;;;4996492;28;20049;-77
2021/08/16 13:42:59;;;;;;;12.43;9.95;;;;;;;;;;4996547;28;20022;-77
2021/08/16 13:45:29;;;;;;;16.80;10.95;;;;;;;;;;4993749;28;20068;-77
2021/08/16 13:47:58;;;;;;;17.25;11.82;;;;;;;;;;5007690;28;20041;-77
2021/08/16 13:50:24;;;;;;;15.57;11.00;;;;;;;;;;4997084;28;20356;-77
2021/08/16 13:52:49;;;;;;;15.48;10.90;;;;;;;;;;4997012;28;20022;-77
2021/08/16 13:55:14;;;;;;;17.13;11.00;;;;;;;;;;4995814;28;20030;-77
2021/08/16 13:57:39;;;;;;;16.30;10.93;;;;;;;;;;5012128;28;20013;-77
2021/08/16 14:00:05;;;;;;;15.23;11.50;;;;;;;;;;5012767;28;20269;-79
2021/08/16 14:02:31;;;;;;;13.77;10.73;;;;;;;;;;4995122;28;20723;-82
2021/08/16 14:04:59;;;;;;;16.02;11.68;;;;;;;;;;5009711;28;20022;-79
2021/08/16 14:07:26;;;;;;;16.05;10.88;;;;;;;;;;4995537;28;20053;-78
2021/08/16 14:09:52;;;;;;;19.33;11.68;;;;;;;;;;5013491;28;20026;-81
2021/08/16 14:12:17;;;;;;;16.33;10.77;;;;;;;;;;5013330;28;20475;-81
2021/08/16 14:14:48;;;;;;;19.98;12.20;;;;;;;;;;5011249;28;20037;-83
2021/08/16 14:17:14;;;;;;;17.83;11.07;;;;;;;;;;5009556;28;20069;-87
2021/08/16 14:19:42;;;;;;;15.40;11.73;;;;;;;;;;5014378;28;20455;-83
2021/08/16 14:22:07;;;;;;;15.70;11.00;;;;;;;;;;4996516;28;20026;-82
2021/08/16 14:24:33;;;;;;;14.63;11.23;;;;;;;;;;4995067;28;20029;-85
2021/08/16 14:26:58;;;;;;;15.75;11.20;;;;;;;;;;4996811;28;20033;-87
2021/08/16 14:29:25;;;;;;;15.02;10.88;;;;;;;;;;4995747;28;20125;-83
2021/08/16 14:31:53;;;;;;;18.95;12.30;;;;;;;;;;4995983;28;20026;-83
2021/08/16 14:34:18;;;;;;;17.02;11.15;;;;;;;;;;5016463;28;20018;-81
2021/08/16 14:36:43;;;;;;;15.47;10.83;;;;;;;;;;5016777;28;20479;-78
2021/08/16 14:39:09;;;;;;;18.77;11.37;;;;;;;;;;5018763;28;20277;-77
2021/08/16 14:41:34;;;;;;;16.17;11.30;;;;;;;;;;5016588;28;20267;-81
2021/08/16 14:43:59;;;;;;;20.00;12.10;;;;;;;;;;5015432;28;20041;-80
2021/08/16 14:46:25;;;;;;;15.32;11.00;;;;;;;;;;5017474;28;20021;-83
2021/08/16 14:48:52;;;;;;;15.15;10.35;;;;;;;;;;5016110;28;20102;-79
2021/08/16 14:51:17;;;;;;;14.63;10.57;;;;;;;;;;5016208;28;20029;-78
2021/08/16 14:53:45;;;;;;;14.95;10.60;;;;;;;;;;5013597;28;20049;-83
2021/08/16 14:56:10;;;;;;;18.10;11.38;;;;;;;;;;5017336;28;20053;-82
2021/08/16 14:58:36;;;;;;;17.13;11.40;;;;;;;;;;5016254;28;20429;-82
2021/08/16 15:01:02;;;;;;;18.15;11.93;;;;;;;;;;4998206;28;20018;-83
2021/08/16 15:03:27;;;;;;;19.35;11.07;;;;;;;;;;5005381;28;20057;-82
2021/08/16 15:06:05;;;;;;;16.93;12.20;;;;;;;;;;5015370;28;20060;-83
2021/08/16 15:08:31;;;;;;;16.77;12.20;;;;;;;;;;5010812;28;20599;-82
2021/08/16 15:11:02;;;;;;;16.60;12.48;;;;;;;;;;4999126;28;20018;-82
2021/08/16 15:13:27;;;;;;;16.23;13.00;;;;;;;;;;5016061;28;20188;-82
2021/08/16 15:15:55;;;;;;;16.60;13.07;;;;;;;;;;4998874;28;20022;-82
2021/08/16 15:18:22;;;;;;;18.25;13.10;;;;;;;;;;5015441;28;20022;-82
2021/08/16 15:20:51;;;;;;;19.25;12.93;;;;;;;;;;5012336;28;20044;-82
2021/08/16 15:23:16;;;;;;;16.35;13.13;;;;;;;;;;5014187;28;20032;-82
2021/08/16 15:25:41;;;;;;;18.17;12.33;;;;;;;;;;5016170;28;20384;-82
2021/08/16 15:28:09;;;;;;;16.50;12.57;;;;;;;;;;4986799;28;20745;-82
2021/08/16 15:30:36;;;;;;;18.63;12.85;;;;;;;;;;4976134;28;20266;-82
2021/08/16 15:33:04;;;;;;;18.77;12.80;;;;;;;;;;4976265;28;20098;-82
2021/08/16 15:35:32;;;;;;;16.00;11.93;;;;;;;;;;4976592;28;20026;-77
2021/08/16 15:37:57;;;;;;;11.27;7.60;;;;;;;;;;4976585;28;20450;-82
2021/08/16 15:40:22;;;;;;;6.45;4.60;;;;;;;;;;4976992;28;20077;-81